ZWWWZUUU

Guest
Details From ZWWW - DIWOPU
To ZUUU - SHUANGLIU
Flight Number -
Tags decoded
Created
Modified
Stats Distance 1,199 nm / 2,220 km
Max Altitude 0 ft / 0 m
Waypoints 5
Social Downloads 1
Likes 0
Share VATSIM

Download

Looking for another format? Having issues loading an existing format? Contact us
Advertisement - Login to hide

Notes

Requested: ZWWW FKG Y3 DUMIN Y1 OMBON B330 DOREX ZUUU Unmatched points: Y3 DUMIN Y1

Route

ZWWW FKG OMBON B330 DOREX ZUUU

ID Type Via Altitude Latitude Longitude Leg Dist Tot Dist Heading (true) Name
O ZWWW APT - 0 ft / 0 m 43.90711˚ 87.47424˚ - 0 nm - DIWOPU
FKG VOR - 0 ft / 0 m 44.16667˚ 87.98333˚ 26 nm 26 nm 54° / 55° FUKANG VOR-DME
OMBON FIX - 0 ft / 0 m 33.35667˚ 104.27167˚ 998 nm 1025 nm 125° / 135° -
DOREX FIX B330 (AWY-HI) 0 ft / 0 m 31.14667˚ 104.38000˚ 132 nm 1158 nm 178° / 178° -
O ZUUU APT - 0 ft / 0 m 30.57853˚ 103.94709˚ 40 nm 1198 nm 213° / 213° SHUANGLIU

Altitude Profile

Advertisement - Login to hide

Weather


0- 5 10 15 20 25 30 35+ Temperature / ° C

Clouds and Precipitation
Forecast for 2017-12-14 06:00 UTC. Updated 2 hours ago

Ground ~20,000 ft ~40,000 ft Winds

ZWWW

Details ICAO ZWWW (URC)
Name DIWOPU
Region China
Timezone Asia/Urumqi (UTC+6.0)
Stats Elevation 2,125 ft / 648 m (AMSL)
Location 43.907106° 87.474243°
Runways 1
Magnetic Variation 2.935° E

METAR

ZWWW 140630Z VRB02MPS 1400 R25/1700U -SN BR BKN030 M07/M08 Q1039 NOSIG

Decode

TAF

Not found

Departure Runways

ID Width Length Bearing (true) Bearing (mag) Surface Threshold Offset Overrun Length
07 148 ft / 45 m 11,796 ft / 3,596 m 73.55° 70.61° Concrete 0 ft / 0 m 200 ft / 61 m
25 148 ft / 45 m 11,796 ft / 3,596 m 253.58° 250.64° Concrete 0 ft / 0 m 195 ft / 59 m

ZUUU

Details ICAO ZUUU (CTU)
Name SHUANGLIU
Region China
Timezone Asia/Chongqing (UTC+8.0)
Stats Elevation 1,625 ft / 495 m (AMSL)
Location 30.578528° 103.947086°
Runways 1
Magnetic Variation 1.981° W

METAR

ZUUU 140600Z 04002MPS 360V090 6000 SCT030 10/05 Q1021 NOSIG

Decode

TAF

Not found

Destination Runways

ID Width Length Bearing (true) Bearing (mag) Surface Threshold Offset Overrun Length
02 197 ft / 60 m 11,834 ft / 3,607 m 21.84° 23.82° Concrete 0 ft / 0 m 196 ft / 60 m
20 197 ft / 60 m 11,834 ft / 3,607 m 201.85° 203.83° Concrete 0 ft / 0 m 196 ft / 60 m

Approach Navaids

Runway Type Ident Frequency Range Bearing (true) Bearing (mag) Slope Elevation
02 Localiser IZW 111.10 MHz 18 nm / 33 km 21.87° 23.85° - 1,624 ft / 495 m (AMSL)
02 Glidescope IZW 111.10 MHz 10 nm / 19 km 21.84° 23.83° 3.00° 1,624 ft / 495 m (AMSL)
20 Localiser IAA 109.10 MHz 18 nm / 33 km 201.87° 203.85° - 1,624 ft / 495 m (AMSL)
20 Glidescope IAA 109.10 MHz 10 nm / 19 km 201.84° 203.83° 3.00° 1,624 ft / 495 m (AMSL)

Popular Alternatives